sensor_id;sensor_type;location;lat;lon;timestamp;temperature;humidity
19138;DHT22;68178;52.188;5.598;2023-06-14T00:01:02;20.60;86.40
19138;DHT22;68178;52.188;5.598;2023-06-14T00:03:28;20.70;86.70
19138;DHT22;68178;52.188;5.598;2023-06-14T00:05:54;20.60;87.00
19138;DHT22;68178;52.188;5.598;2023-06-14T00:08:20;20.70;86.30
19138;DHT22;68178;52.188;5.598;2023-06-14T00:10:48;20.70;85.90
19138;DHT22;68178;52.188;5.598;2023-06-14T00:13:14;20.60;86.00
19138;DHT22;68178;52.188;5.598;2023-06-14T00:15:40;20.60;86.40
19138;DHT22;68178;52.188;5.598;2023-06-14T00:18:06;20.60;86.40
19138;DHT22;68178;52.188;5.598;2023-06-14T00:20:32;20.60;86.70
19138;DHT22;68178;52.188;5.598;2023-06-14T00:23:02;20.50;86.10
19138;DHT22;68178;52.188;5.598;2023-06-14T00:25:27;20.50;87.00
19138;DHT22;68178;52.188;5.598;2023-06-14T00:27:54;20.50;86.60
19138;DHT22;68178;52.188;5.598;2023-06-14T00:30:20;20.50;86.70
19138;DHT22;68178;52.188;5.598;2023-06-14T00:32:46;20.40;86.90
19138;DHT22;68178;52.188;5.598;2023-06-14T00:35:12;20.40;86.80
19138;DHT22;68178;52.188;5.598;2023-06-14T00:37:38;20.40;87.50
19138;DHT22;68178;52.188;5.598;2023-06-14T00:40:04;20.40;87.30
19138;DHT22;68178;52.188;5.598;2023-06-14T00:42:30;20.30;87.30
19138;DHT22;68178;52.188;5.598;2023-06-14T00:44:56;20.20;87.10
19138;DHT22;68178;52.188;5.598;2023-06-14T00:47:22;20.10;87.70
19138;DHT22;68178;52.188;5.598;2023-06-14T00:49:49;20.20;87.40
19138;DHT22;68178;52.188;5.598;2023-06-14T00:52:16;20.20;86.80
19138;DHT22;68178;52.188;5.598;2023-06-14T00:54:43;20.20;87.00
19138;DHT22;68178;52.188;5.598;2023-06-14T00:57:09;20.20;87.00
19138;DHT22;68178;52.188;5.598;2023-06-14T00:59:47;20.10;87.60
19138;DHT22;68178;52.188;5.598;2023-06-14T01:02:14;20.00;87.50
19138;DHT22;68178;52.188;5.598;2023-06-14T01:04:45;20.00;87.90
19138;DHT22;68178;52.188;5.598;2023-06-14T01:10:09;20.10;87.40
19138;DHT22;68178;52.188;5.598;2023-06-14T01:15:20;20.00;88.00
19138;DHT22;68178;52.188;5.598;2023-06-14T01:17:46;20.00;87.60
19138;DHT22;68178;52.188;5.598;2023-06-14T01:20:17;19.90;88.20
19138;DHT22;68178;52.188;5.598;2023-06-14T01:23:09;19.90;87.80
19138;DHT22;68178;52.188;5.598;2023-06-14T01:25:34;19.80;88.00
19138;DHT22;68178;52.188;5.598;2023-06-14T01:28:05;19.80;87.80
19138;DHT22;68178;52.188;5.598;2023-06-14T01:30:37;19.70;88.80
19138;DHT22;68178;52.188;5.598;2023-06-14T01:33:04;19.70;88.90
19138;DHT22;68178;52.188;5.598;2023-06-14T01:35:31;19.60;88.70
19138;DHT22;68178;52.188;5.598;2023-06-14T01:37:57;19.50;88.80
19138;DHT22;68178;52.188;5.598;2023-06-14T01:40:24;19.40;89.20
19138;DHT22;68178;52.188;5.598;2023-06-14T01:42:50;19.50;90.00
19138;DHT22;68178;52.188;5.598;2023-06-14T01:45:18;19.50;89.00
19138;DHT22;68178;52.188;5.598;2023-06-14T01:47:45;19.50;89.50
19138;DHT22;68178;52.188;5.598;2023-06-14T01:50:11;19.40;89.40
19138;DHT22;68178;52.188;5.598;2023-06-14T01:52:37;19.30;89.40
19138;DHT22;68178;52.188;5.598;2023-06-14T01:55:04;19.30;89.60
19138;DHT22;68178;52.188;5.598;2023-06-14T01:57:31;19.20;89.90
19138;DHT22;68178;52.188;5.598;2023-06-14T01:59:56;19.20;89.90
19138;DHT22;68178;52.188;5.598;2023-06-14T02:02:22;19.20;90.00
19138;DHT22;68178;52.188;5.598;2023-06-14T02:04:47;19.20;89.80
19138;DHT22;68178;52.188;5.598;2023-06-14T02:07:13;19.10;90.10
19138;DHT22;68178;52.188;5.598;2023-06-14T02:09:40;19.00;90.10
19138;DHT22;68178;52.188;5.598;2023-06-14T02:12:06;19.00;89.90
19138;DHT22;68178;52.188;5.598;2023-06-14T02:14:32;19.00;90.50
19138;DHT22;68178;52.188;5.598;2023-06-14T02:16:59;18.90;90.50
19138;DHT22;68178;52.188;5.598;2023-06-14T02:19:26;18.80;90.50
19138;DHT22;68178;52.188;5.598;2023-06-14T02:21:52;18.80;90.30
19138;DHT22;68178;52.188;5.598;2023-06-14T02:24:17;18.80;90.70
19138;DHT22;68178;52.188;5.598;2023-06-14T02:26:43;18.80;90.70
19138;DHT22;68178;52.188;5.598;2023-06-14T02:29:09;18.80;90.70
19138;DHT22;68178;52.188;5.598;2023-06-14T02:31:36;18.70;90.50
19138;DHT22;68178;52.188;5.598;2023-06-14T02:34:02;18.70;90.60
19138;DHT22;68178;52.188;5.598;2023-06-14T02:36:28;18.70;91.00
19138;DHT22;68178;52.188;5.598;2023-06-14T02:38:55;18.60;90.90
19138;DHT22;68178;52.188;5.598;2023-06-14T02:41:23;18.50;91.10
19138;DHT22;68178;52.188;5.598;2023-06-14T02:43:48;18.50;91.10
19138;DHT22;68178;52.188;5.598;2023-06-14T02:46:14;18.50;91.50
19138;DHT22;68178;52.188;5.598;2023-06-14T02:48:40;18.40;91.20
19138;DHT22;68178;52.188;5.598;2023-06-14T02:51:06;18.30;91.50
19138;DHT22;68178;52.188;5.598;2023-06-14T02:53:33;18.40;91.50
19138;DHT22;68178;52.188;5.598;2023-06-14T02:55:59;18.40;91.50
19138;DHT22;68178;52.188;5.598;2023-06-14T02:58:24;18.30;91.50
19138;DHT22;68178;52.188;5.598;2023-06-14T03:00:50;18.20;91.50
19138;DHT22;68178;52.188;5.598;2023-06-14T03:03:17;18.30;91.60
19138;DHT22;68178;52.188;5.598;2023-06-14T03:05:45;18.20;91.70
19138;DHT22;68178;52.188;5.598;2023-06-14T03:08:13;18.20;91.80
19138;DHT22;68178;52.188;5.598;2023-06-14T03:10:45;18.20;92.00
19138;DHT22;68178;52.188;5.598;2023-06-14T03:13:14;18.10;91.80
19138;DHT22;68178;52.188;5.598;2023-06-14T03:15:41;18.10;92.10
19138;DHT22;68178;52.188;5.598;2023-06-14T03:18:08;18.10;92.00
19138;DHT22;68178;52.188;5.598;2023-06-14T03:20:35;18.10;91.80
19138;DHT22;68178;52.188;5.598;2023-06-14T03:23:01;18.00;92.00
19138;DHT22;68178;52.188;5.598;2023-06-14T03:25:27;18.00;92.10
19138;DHT22;68178;52.188;5.598;2023-06-14T03:27:55;17.90;92.30
19138;DHT22;68178;52.188;5.598;2023-06-14T03:30:20;18.00;92.40
19138;DHT22;68178;52.188;5.598;2023-06-14T03:32:46;18.00;92.30
19138;DHT22;68178;52.188;5.598;2023-06-14T03:35:11;17.90;92.30
19138;DHT22;68178;52.188;5.598;2023-06-14T03:37:43;17.90;92.30
19138;DHT22;68178;52.188;5.598;2023-06-14T03:40:09;17.80;92.40
19138;DHT22;68178;52.188;5.598;2023-06-14T03:42:34;17.80;92.80
19138;DHT22;68178;52.188;5.598;2023-06-14T03:45:00;17.90;92.60
19138;DHT22;68178;52.188;5.598;2023-06-14T03:47:25;17.80;92.60
19138;DHT22;68178;52.188;5.598;2023-06-14T03:49:52;17.80;92.70
19138;DHT22;68178;52.188;5.598;2023-06-14T03:52:18;17.70;92.80
19138;DHT22;68178;52.188;5.598;2023-06-14T03:54:43;17.70;93.10
19138;DHT22;68178;52.188;5.598;2023-06-14T03:57:09;17.70;93.20
19138;DHT22;68178;52.188;5.598;2023-06-14T03:59:36;17.70;93.00
19138;DHT22;68178;52.188;5.598;2023-06-14T04:02:02;17.70;93.10
19138;DHT22;68178;52.188;5.598;2023-06-14T04:04:28;17.70;93.30
19138;DHT22;68178;52.188;5.598;2023-06-14T04:06:57;17.70;93.50
19138;DHT22;68178;52.188;5.598;2023-06-14T04:09:24;17.80;93.10
19138;DHT22;68178;52.188;5.598;2023-06-14T04:11:51;17.70;93.10
19138;DHT22;68178;52.188;5.598;2023-06-14T04:14:21;17.60;93.40
19138;DHT22;68178;52.188;5.598;2023-06-14T04:16:47;17.70;93.80
19138;DHT22;68178;52.188;5.598;2023-06-14T04:19:14;17.60;93.60
19138;DHT22;68178;52.188;5.598;2023-06-14T04:21:39;17.70;93.40
19138;DHT22;68178;52.188;5.598;2023-06-14T04:24:05;17.60;93.30
19138;DHT22;68178;52.188;5.598;2023-06-14T04:26:32;17.70;93.40
19138;DHT22;68178;52.188;5.598;2023-06-14T04:28:59;17.60;93.60
19138;DHT22;68178;52.188;5.598;2023-06-14T04:31:29;17.70;93.70
19138;DHT22;68178;52.188;5.598;2023-06-14T04:33:55;17.70;93.60
19138;DHT22;68178;52.188;5.598;2023-06-14T04:36:21;17.70;93.70
19138;DHT22;68178;52.188;5.598;2023-06-14T04:38:47;17.80;93.60
19138;DHT22;68178;52.188;5.598;2023-06-14T04:41:14;17.80;94.00
19138;DHT22;68178;52.188;5.598;2023-06-14T04:43:41;17.80;93.70
19138;DHT22;68178;52.188;5.598;2023-06-14T04:46:08;17.90;93.90
19138;DHT22;68178;52.188;5.598;2023-06-14T04:48:39;18.00;93.60
19138;DHT22;68178;52.188;5.598;2023-06-14T04:51:08;18.00;93.50
19138;DHT22;68178;52.188;5.598;2023-06-14T04:53:35;17.90;93.90
19138;DHT22;68178;52.188;5.598;2023-06-14T04:56:01;18.00;93.90
19138;DHT22;68178;52.188;5.598;2023-06-14T04:58:27;18.00;93.60
19138;DHT22;68178;52.188;5.598;2023-06-14T05:00:54;18.10;93.50
19138;DHT22;68178;52.188;5.598;2023-06-14T05:03:21;18.20;93.60
19138;DHT22;68178;52.188;5.598;2023-06-14T05:05:47;18.30;93.30
19138;DHT22;68178;52.188;5.598;2023-06-14T05:08:13;18.30;93.40
19138;DHT22;68178;52.188;5.598;2023-06-14T05:10:38;18.50;93.20
19138;DHT22;68178;52.188;5.598;2023-06-14T05:13:04;18.60;92.80
19138;DHT22;68178;52.188;5.598;2023-06-14T05:15:29;18.70;93.20
19138;DHT22;68178;52.188;5.598;2023-06-14T05:17:55;18.70;92.90
19138;DHT22;68178;52.188;5.598;2023-06-14T05:20:24;18.80;93.40
19138;DHT22;68178;52.188;5.598;2023-06-14T05:22:53;18.90;92.90
19138;DHT22;68178;52.188;5.598;2023-06-14T05:25:22;19.00;92.80
19138;DHT22;68178;52.188;5.598;2023-06-14T05:27:48;19.10;92.60
19138;DHT22;68178;52.188;5.598;2023-06-14T05:30:14;19.20;92.60
19138;DHT22;68178;52.188;5.598;2023-06-14T05:32:40;19.20;92.00
19138;DHT22;68178;52.188;5.598;2023-06-14T05:35:06;19.30;92.60
19138;DHT22;68178;52.188;5.598;2023-06-14T05:37:32;19.40;92.10
19138;DHT22;68178;52.188;5.598;2023-06-14T05:39:58;19.60;91.30
19138;DHT22;68178;52.188;5.598;2023-06-14T05:42:23;19.60;91.40
19138;DHT22;68178;52.188;5.598;2023-06-14T05:44:49;19.80;91.10
19138;DHT22;68178;52.188;5.598;2023-06-14T05:47:14;20.00;91.20
19138;DHT22;68178;52.188;5.598;2023-06-14T05:49:40;20.10;90.40
19138;DHT22;68178;52.188;5.598;2023-06-14T05:52:06;20.10;90.00
19138;DHT22;68178;52.188;5.598;2023-06-14T05:54:32;20.00;90.30
19138;DHT22;68178;52.188;5.598;2023-06-14T05:56:57;20.20;90.10
19138;DHT22;68178;52.188;5.598;2023-06-14T05:59:27;20.30;89.30
19138;DHT22;68178;52.188;5.598;2023-06-14T06:01:52;20.30;89.50
19138;DHT22;68178;52.188;5.598;2023-06-14T06:04:18;20.30;90.00
19138;DHT22;68178;52.188;5.598;2023-06-14T06:06:44;20.40;89.30
19138;DHT22;68178;52.188;5.598;2023-06-14T06:09:10;20.40;88.00
19138;DHT22;68178;52.188;5.598;2023-06-14T06:11:36;20.40;89.00
19138;DHT22;68178;52.188;5.598;2023-06-14T06:14:01;20.40;90.00
19138;DHT22;68178;52.188;5.598;2023-06-14T06:16:27;20.40;88.90
19138;DHT22;68178;52.188;5.598;2023-06-14T06:18:52;20.50;88.60
19138;DHT22;68178;52.188;5.598;2023-06-14T06:21:18;20.60;89.40
19138;DHT22;68178;52.188;5.598;2023-06-14T06:23:43;20.60;89.20
19138;DHT22;68178;52.188;5.598;2023-06-14T06:26:09;20.70;89.20
19138;DHT22;68178;52.188;5.598;2023-06-14T06:28:34;20.70;89.30
19138;DHT22;68178;52.188;5.598;2023-06-14T06:31:00;20.90;88.10
19138;DHT22;68178;52.188;5.598;2023-06-14T06:33:26;20.90;88.70
19138;DHT22;68178;52.188;5.598;2023-06-14T06:35:52;21.00;89.00
19138;DHT22;68178;52.188;5.598;2023-06-14T06:38:17;21.30;87.40
19138;DHT22;68178;52.188;5.598;2023-06-14T06:40:44;21.40;87.10
19138;DHT22;68178;52.188;5.598;2023-06-14T06:43:10;21.40;87.30
19138;DHT22;68178;52.188;5.598;2023-06-14T06:45:39;21.50;86.40
19138;DHT22;68178;52.188;5.598;2023-06-14T06:48:05;21.60;86.80
19138;DHT22;68178;52.188;5.598;2023-06-14T06:50:30;21.60;86.00
19138;DHT22;68178;52.188;5.598;2023-06-14T06:52:56;21.60;86.40
19138;DHT22;68178;52.188;5.598;2023-06-14T06:55:21;21.70;85.40
19138;DHT22;68178;52.188;5.598;2023-06-14T06:57:47;21.70;85.30
19138;DHT22;68178;52.188;5.598;2023-06-14T07:00:13;21.80;84.80
19138;DHT22;68178;52.188;5.598;2023-06-14T07:02:39;21.90;84.20
19138;DHT22;68178;52.188;5.598;2023-06-14T07:05:04;22.00;85.00
19138;DHT22;68178;52.188;5.598;2023-06-14T07:07:31;22.20;84.70
19138;DHT22;68178;52.188;5.598;2023-06-14T07:09:56;22.40;84.20
19138;DHT22;68178;52.188;5.598;2023-06-14T07:12:23;22.50;83.60
19138;DHT22;68178;52.188;5.598;2023-06-14T07:14:48;22.80;83.40
19138;DHT22;68178;52.188;5.598;2023-06-14T07:17:14;22.90;83.80
19138;DHT22;68178;52.188;5.598;2023-06-14T07:19:40;23.20;82.60
19138;DHT22;68178;52.188;5.598;2023-06-14T07:22:05;23.20;81.10
19138;DHT22;68178;52.188;5.598;2023-06-14T07:24:31;23.10;80.70
19138;DHT22;68178;52.188;5.598;2023-06-14T07:26:56;23.20;79.50
19138;DHT22;68178;52.188;5.598;2023-06-14T07:29:22;23.30;80.10
19138;DHT22;68178;52.188;5.598;2023-06-14T07:31:47;23.20;78.90
19138;DHT22;68178;52.188;5.598;2023-06-14T07:34:13;23.20;81.00
19138;DHT22;68178;52.188;5.598;2023-06-14T07:36:39;23.40;79.60
19138;DHT22;68178;52.188;5.598;2023-06-14T07:39:05;23.60;79.20
19138;DHT22;68178;52.188;5.598;2023-06-14T07:41:32;23.90;79.00
19138;DHT22;68178;52.188;5.598;2023-06-14T07:43:58;24.00;77.50
19138;DHT22;68178;52.188;5.598;2023-06-14T07:46:23;24.00;76.70
19138;DHT22;68178;52.188;5.598;2023-06-14T07:48:49;24.00;77.70
19138;DHT22;68178;52.188;5.598;2023-06-14T07:51:15;24.10;76.10
19138;DHT22;68178;52.188;5.598;2023-06-14T07:53:40;24.10;77.50
19138;DHT22;68178;52.188;5.598;2023-06-14T07:56:09;24.00;76.70
19138;DHT22;68178;52.188;5.598;2023-06-14T07:58:34;24.00;75.90
19138;DHT22;68178;52.188;5.598;2023-06-14T08:01:00;24.30;77.00
19138;DHT22;68178;52.188;5.598;2023-06-14T08:03:27;24.40;75.30
19138;DHT22;68178;52.188;5.598;2023-06-14T08:05:52;24.40;74.40
19138;DHT22;68178;52.188;5.598;2023-06-14T08:08:18;24.20;74.40
19138;DHT22;68178;52.188;5.598;2023-06-14T08:10:44;24.00;76.10
19138;DHT22;68178;52.188;5.598;2023-06-14T08:13:09;24.20;75.20
19138;DHT22;68178;52.188;5.598;2023-06-14T08:15:35;24.40;73.90
19138;DHT22;68178;52.188;5.598;2023-06-14T08:18:01;24.40;74.00
19138;DHT22;68178;52.188;5.598;2023-06-14T08:20:26;24.50;74.50
19138;DHT22;68178;52.188;5.598;2023-06-14T08:22:52;24.60;74.10
19138;DHT22;68178;52.188;5.598;2023-06-14T08:25:20;24.70;75.90
19138;DHT22;68178;52.188;5.598;2023-06-14T08:27:46;25.00;73.70
19138;DHT22;68178;52.188;5.598;2023-06-14T08:30:12;25.10;72.00
19138;DHT22;68178;52.188;5.598;2023-06-14T08:32:38;25.10;72.00
19138;DHT22;68178;52.188;5.598;2023-06-14T08:35:04;25.10;71.90
19138;DHT22;68178;52.188;5.598;2023-06-14T08:37:31;25.30;71.00
19138;DHT22;68178;52.188;5.598;2023-06-14T08:39:56;25.10;71.20
19138;DHT22;68178;52.188;5.598;2023-06-14T08:42:24;25.20;71.10
19138;DHT22;68178;52.188;5.598;2023-06-14T08:44:49;25.30;70.70
19138;DHT22;68178;52.188;5.598;2023-06-14T08:47:15;25.30;71.40
19138;DHT22;68178;52.188;5.598;2023-06-14T08:49:46;25.60;70.80
19138;DHT22;68178;52.188;5.598;2023-06-14T08:52:13;25.40;70.00
19138;DHT22;68178;52.188;5.598;2023-06-14T08:54:41;25.40;70.50
19138;DHT22;68178;52.188;5.598;2023-06-14T08:57:11;25.60;72.00
19138;DHT22;68178;52.188;5.598;2023-06-14T08:59:45;25.50;69.30
19138;DHT22;68178;52.188;5.598;2023-06-14T09:02:12;25.40;71.10
19138;DHT22;68178;52.188;5.598;2023-06-14T09:04:39;25.40;69.10
19138;DHT22;68178;52.188;5.598;2023-06-14T09:07:05;25.50;69.10
19138;DHT22;68178;52.188;5.598;2023-06-14T09:09:32;25.60;70.20
19138;DHT22;68178;52.188;5.598;2023-06-14T09:11:58;25.70;70.50
19138;DHT22;68178;52.188;5.598;2023-06-14T09:14:26;25.70;69.90
19138;DHT22;68178;52.188;5.598;2023-06-14T09:16:54;25.90;69.00
19138;DHT22;68178;52.188;5.598;2023-06-14T09:19:24;26.00;69.60
19138;DHT22;68178;52.188;5.598;2023-06-14T09:21:50;26.00;69.80
19138;DHT22;68178;52.188;5.598;2023-06-14T09:24:18;26.00;68.80
19138;DHT22;68178;52.188;5.598;2023-06-14T09:26:47;25.90;68.00
19138;DHT22;68178;52.188;5.598;2023-06-14T09:29:12;25.70;68.60
19138;DHT22;68178;52.188;5.598;2023-06-14T09:31:38;25.80;68.90
19138;DHT22;68178;52.188;5.598;2023-06-14T09:34:03;25.80;68.60
19138;DHT22;68178;52.188;5.598;2023-06-14T09:36:31;25.90;68.80
19138;DHT22;68178;52.188;5.598;2023-06-14T09:38:59;26.10;67.70
19138;DHT22;68178;52.188;5.598;2023-06-14T09:41:36;26.00;68.60
19138;DHT22;68178;52.188;5.598;2023-06-14T09:44:04;26.20;67.60
19138;DHT22;68178;52.188;5.598;2023-06-14T09:46:30;26.20;68.10
19138;DHT22;68178;52.188;5.598;2023-06-14T09:48:57;26.30;68.60
19138;DHT22;68178;52.188;5.598;2023-06-14T09:51:23;26.20;68.60
19138;DHT22;68178;52.188;5.598;2023-06-14T09:53:50;26.20;69.00
19138;DHT22;68178;52.188;5.598;2023-06-14T09:56:25;26.20;68.40
19138;DHT22;68178;52.188;5.598;2023-06-14T09:58:55;26.20;71.40
19138;DHT22;68178;52.188;5.598;2023-06-14T10:01:26;26.20;69.80
19138;DHT22;68178;52.188;5.598;2023-06-14T10:03:59;26.30;71.00
19138;DHT22;68178;52.188;5.598;2023-06-14T10:06:26;26.40;68.80
19138;DHT22;68178;52.188;5.598;2023-06-14T10:08:57;26.50;70.70
19138;DHT22;68178;52.188;5.598;2023-06-14T10:11:25;26.50;69.30
19138;DHT22;68178;52.188;5.598;2023-06-14T10:13:51;26.60;68.00
19138;DHT22;68178;52.188;5.598;2023-06-14T10:16:34;26.80;68.40
19138;DHT22;68178;52.188;5.598;2023-06-14T10:19:20;27.00;65.10
19138;DHT22;68178;52.188;5.598;2023-06-14T10:22:08;27.00;65.60
19138;DHT22;68178;52.188;5.598;2023-06-14T10:24:40;26.90;66.50
19138;DHT22;68178;52.188;5.598;2023-06-14T10:27:07;26.90;66.50
19138;DHT22;68178;52.188;5.598;2023-06-14T10:32:28;27.20;66.60
19138;DHT22;68178;52.188;5.598;2023-06-14T10:35:00;27.00;66.80
19138;DHT22;68178;52.188;5.598;2023-06-14T10:37:26;27.10;67.10
19138;DHT22;68178;52.188;5.598;2023-06-14T10:39:52;27.20;67.90
19138;DHT22;68178;52.188;5.598;2023-06-14T10:42:19;27.50;66.70
19138;DHT22;68178;52.188;5.598;2023-06-14T10:44:52;27.50;67.10
19138;DHT22;68178;52.188;5.598;2023-06-14T10:47:28;27.70;66.40
19138;DHT22;68178;52.188;5.598;2023-06-14T10:50:14;27.70;65.70
19138;DHT22;68178;52.188;5.598;2023-06-14T10:52:43;27.80;67.50
19138;DHT22;68178;52.188;5.598;2023-06-14T10:55:12;27.80;68.30
19138;DHT22;68178;52.188;5.598;2023-06-14T10:57:50;27.90;69.10
19138;DHT22;68178;52.188;5.598;2023-06-14T11:00:25;28.00;68.00
19138;DHT22;68178;52.188;5.598;2023-06-14T11:05:30;28.20;66.00
19138;DHT22;68178;52.188;5.598;2023-06-14T11:10:42;28.20;66.80
19138;DHT22;68178;52.188;5.598;2023-06-14T11:13:08;27.80;64.00
19138;DHT22;68178;52.188;5.598;2023-06-14T11:15:35;27.70;66.00
19138;DHT22;68178;52.188;5.598;2023-06-14T11:18:06;27.70;66.60
19138;DHT22;68178;52.188;5.598;2023-06-14T11:20:34;27.90;66.70
19138;DHT22;68178;52.188;5.598;2023-06-14T11:23:04;28.00;66.30
19138;DHT22;68178;52.188;5.598;2023-06-14T11:25:30;28.20;65.50
19138;DHT22;68178;52.188;5.598;2023-06-14T11:27:56;28.20;63.80
19138;DHT22;68178;52.188;5.598;2023-06-14T11:30:22;28.30;62.50
19138;DHT22;68178;52.188;5.598;2023-06-14T11:32:49;28.20;62.40
19138;DHT22;68178;52.188;5.598;2023-06-14T11:35:16;28.10;64.00
19138;DHT22;68178;52.188;5.598;2023-06-14T11:37:42;28.30;64.80
19138;DHT22;68178;52.188;5.598;2023-06-14T11:40:10;28.40;65.60
19138;DHT22;68178;52.188;5.598;2023-06-14T11:42:38;28.80;67.20
19138;DHT22;68178;52.188;5.598;2023-06-14T11:45:06;29.00;65.40
19138;DHT22;68178;52.188;5.598;2023-06-14T11:47:33;29.10;66.20
19138;DHT22;68178;52.188;5.598;2023-06-14T11:50:03;29.30;63.20
19138;DHT22;68178;52.188;5.598;2023-06-14T11:52:30;28.90;64.20
19138;DHT22;68178;52.188;5.598;2023-06-14T11:54:56;29.00;64.30
19138;DHT22;68178;52.188;5.598;2023-06-14T11:57:22;28.90;64.60
19138;DHT22;68178;52.188;5.598;2023-06-14T11:59:48;29.00;65.00
19138;DHT22;68178;52.188;5.598;2023-06-14T12:02:19;29.30;65.20
19138;DHT22;68178;52.188;5.598;2023-06-14T12:04:47;29.30;65.90
19138;DHT22;68178;52.188;5.598;2023-06-14T12:07:16;29.40;65.50
19138;DHT22;68178;52.188;5.598;2023-06-14T12:12:21;29.50;65.10
19138;DHT22;68178;52.188;5.598;2023-06-14T12:14:47;29.30;66.20
19138;DHT22;68178;52.188;5.598;2023-06-14T12:17:13;29.10;65.70
19138;DHT22;68178;52.188;5.598;2023-06-14T12:19:42;29.00;65.90
19138;DHT22;68178;52.188;5.598;2023-06-14T12:22:12;29.10;62.50
19138;DHT22;68178;52.188;5.598;2023-06-14T12:24:38;28.90;63.50
19138;DHT22;68178;52.188;5.598;2023-06-14T12:27:05;29.00;64.40
19138;DHT22;68178;52.188;5.598;2023-06-14T12:29:31;29.10;62.00
19138;DHT22;68178;52.188;5.598;2023-06-14T12:31:57;29.20;64.30
19138;DHT22;68178;52.188;5.598;2023-06-14T12:34:26;29.30;62.70
19138;DHT22;68178;52.188;5.598;2023-06-14T12:36:55;29.20;62.50
19138;DHT22;68178;52.188;5.598;2023-06-14T12:39:21;29.20;60.90
19138;DHT22;68178;52.188;5.598;2023-06-14T12:41:47;29.00;61.30
19138;DHT22;68178;52.188;5.598;2023-06-14T12:44:14;29.20;61.70
19138;DHT22;68178;52.188;5.598;2023-06-14T12:46:41;29.30;61.10
19138;DHT22;68178;52.188;5.598;2023-06-14T12:49:11;29.10;62.30
19138;DHT22;68178;52.188;5.598;2023-06-14T12:51:38;29.20;65.30
19138;DHT22;68178;52.188;5.598;2023-06-14T12:54:04;29.30;66.70
19138;DHT22;68178;52.188;5.598;2023-06-14T12:56:30;29.60;64.00
19138;DHT22;68178;52.188;5.598;2023-06-14T12:58:55;29.70;62.60
19138;DHT22;68178;52.188;5.598;2023-06-14T13:01:21;29.90;62.30
19138;DHT22;68178;52.188;5.598;2023-06-14T13:03:47;29.90;61.80
19138;DHT22;68178;52.188;5.598;2023-06-14T13:06:13;29.60;60.20
19138;DHT22;68178;52.188;5.598;2023-06-14T13:08:39;29.60;61.70
19138;DHT22;68178;52.188;5.598;2023-06-14T13:11:04;29.70;61.60
19138;DHT22;68178;52.188;5.598;2023-06-14T13:13:30;29.60;60.70
19138;DHT22;68178;52.188;5.598;2023-06-14T13:15:55;29.60;61.70
19138;DHT22;68178;52.188;5.598;2023-06-14T13:18:22;29.70;61.80
19138;DHT22;68178;52.188;5.598;2023-06-14T13:20:48;29.90;60.60
19138;DHT22;68178;52.188;5.598;2023-06-14T13:23:15;29.70;63.30
19138;DHT22;68178;52.188;5.598;2023-06-14T13:25:40;29.80;62.90
19138;DHT22;68178;52.188;5.598;2023-06-14T13:28:06;30.10;62.40
19138;DHT22;68178;52.188;5.598;2023-06-14T13:30:33;30.20;60.70
19138;DHT22;68178;52.188;5.598;2023-06-14T13:32:59;30.20;60.10
19138;DHT22;68178;52.188;5.598;2023-06-14T13:35:25;30.10;58.80
19138;DHT22;68178;52.188;5.598;2023-06-14T13:37:51;29.90;61.00
19138;DHT22;68178;52.188;5.598;2023-06-14T13:40:17;29.70;62.50
19138;DHT22;68178;52.188;5.598;2023-06-14T13:42:42;29.60;62.80
19138;DHT22;68178;52.188;5.598;2023-06-14T13:45:09;29.80;65.30
19138;DHT22;68178;52.188;5.598;2023-06-14T13:47:35;29.90;62.80
19138;DHT22;68178;52.188;5.598;2023-06-14T13:50:01;29.80;60.70
19138;DHT22;68178;52.188;5.598;2023-06-14T13:52:27;29.70;61.50
19138;DHT22;68178;52.188;5.598;2023-06-14T13:54:53;29.60;61.30
19138;DHT22;68178;52.188;5.598;2023-06-14T13:57:19;29.40;60.70
19138;DHT22;68178;52.188;5.598;2023-06-14T13:59:45;29.40;61.40
19138;DHT22;68178;52.188;5.598;2023-06-14T14:02:11;29.60;61.50
19138;DHT22;68178;52.188;5.598;2023-06-14T14:04:37;29.60;62.50
19138;DHT22;68178;52.188;5.598;2023-06-14T14:07:04;29.60;61.70
19138;DHT22;68178;52.188;5.598;2023-06-14T14:09:31;29.50;62.30
19138;DHT22;68178;52.188;5.598;2023-06-14T14:11:58;29.50;61.10
19138;DHT22;68178;52.188;5.598;2023-06-14T14:14:24;29.50;62.10
19138;DHT22;68178;52.188;5.598;2023-06-14T14:16:49;29.60;62.00
19138;DHT22;68178;52.188;5.598;2023-06-14T14:19:17;29.50;60.80
19138;DHT22;68178;52.188;5.598;2023-06-14T14:21:44;29.40;60.50
19138;DHT22;68178;52.188;5.598;2023-06-14T14:24:10;29.40;61.50
19138;DHT22;68178;52.188;5.598;2023-06-14T14:26:35;29.50;60.90
19138;DHT22;68178;52.188;5.598;2023-06-14T14:29:01;29.60;60.60
19138;DHT22;68178;52.188;5.598;2023-06-14T14:31:28;29.70;61.20
19138;DHT22;68178;52.188;5.598;2023-06-14T14:33:53;29.60;63.20
19138;DHT22;68178;52.188;5.598;2023-06-14T14:36:19;29.50;61.90
19138;DHT22;68178;52.188;5.598;2023-06-14T14:38:44;29.20;62.60
19138;DHT22;68178;52.188;5.598;2023-06-14T14:41:10;29.40;61.80
19138;DHT22;68178;52.188;5.598;2023-06-14T14:43:36;29.00;62.70
19138;DHT22;68178;52.188;5.598;2023-06-14T14:46:01;28.90;63.00
19138;DHT22;68178;52.188;5.598;2023-06-14T14:48:27;28.70;62.10
19138;DHT22;68178;52.188;5.598;2023-06-14T14:50:52;28.50;63.20
19138;DHT22;68178;52.188;5.598;2023-06-14T14:53:18;28.30;63.40
19138;DHT22;68178;52.188;5.598;2023-06-14T14:55:44;28.30;61.40
19138;DHT22;68178;52.188;5.598;2023-06-14T14:58:09;28.30;62.50
19138;DHT22;68178;52.188;5.598;2023-06-14T15:00:35;28.10;61.90
19138;DHT22;68178;52.188;5.598;2023-06-14T15:03:00;27.90;62.90
19138;DHT22;68178;52.188;5.598;2023-06-14T15:05:26;27.90;63.80
19138;DHT22;68178;52.188;5.598;2023-06-14T15:07:52;27.80;61.80
19138;DHT22;68178;52.188;5.598;2023-06-14T15:10:17;27.80;63.00
19138;DHT22;68178;52.188;5.598;2023-06-14T15:12:43;27.90;62.70
19138;DHT22;68178;52.188;5.598;2023-06-14T15:15:09;27.90;65.50
19138;DHT22;68178;52.188;5.598;2023-06-14T15:17:35;28.00;64.90
19138;DHT22;68178;52.188;5.598;2023-06-14T15:20:01;27.90;63.60
19138;DHT22;68178;52.188;5.598;2023-06-14T15:22:26;27.80;65.30
19138;DHT22;68178;52.188;5.598;2023-06-14T15:24:52;27.80;63.30
19138;DHT22;68178;52.188;5.598;2023-06-14T15:27:17;27.80;63.20
19138;DHT22;68178;52.188;5.598;2023-06-14T15:29:43;27.60;62.50
19138;DHT22;68178;52.188;5.598;2023-06-14T15:32:09;27.50;63.10
19138;DHT22;68178;52.188;5.598;2023-06-14T15:34:36;27.40;62.20
19138;DHT22;68178;52.188;5.598;2023-06-14T15:37:07;27.30;64.70
19138;DHT22;68178;52.188;5.598;2023-06-14T15:39:33;27.30;63.00
19138;DHT22;68178;52.188;5.598;2023-06-14T15:41:59;27.20;64.70
19138;DHT22;68178;52.188;5.598;2023-06-14T15:44:25;27.10;64.10